Main page
Satellite images 15-day forecastsClimateMarine weather Cyclones Lightning AirportsFAQ Newsletter About
Weather : Europe Africa North America South America Asia Australia-Oceania Others
Languages Contact

Eleusina, Greece

latitude: 38-04N, longitude: 023-33E, elevation: 44 m


METAR: LGEL 301250Z 17010KT 9999 FEW035 36/16 Q1009 NOSIG
short-TAF: out of date (19202 hours)
long-TAF: LGEL 301100Z 3012/3112 19012KT 9999 FEW025 TEMPO 3019/3104 VRB03KT

Time: 16:08 (13:08 UTC)

Current weather observation

The report was made 18 minutes ago, at 12:50 UTC  
Wind 10 kt from the South
Temperature 36°C
Humidity 31%
Pressure 1009 hPa
Visibility 10 km or more
Few clouds at a height of 3500 ft

Change units

Forecast

The report was made 1 hour and 56 minutes ago, at 11:12 UTC  
Forecast valid from 30 at 12 UTC to 31 at 12 UTC
Wind 12 kt from the South
Visibility 10 km or more
Few clouds at a height of 2500 ft
Temporary
from 30 at 19 UTC to 31 at 04 UTC
Wind 03 kt from variable directions
The information on this site is subject to a disclaimer
Weather : Europe Africa North America South America Asia Australia-Oceania Others
Satellite images 15-day forecastsClimateMarine weather Cyclones Lightning AirportsFAQ Languages Contact Newsletter About